NK0 weather

Maus Marineland Seaplane Base
New Hope, New York, United States

Public forecast

Using degrees Fahrenheit for public forecast. Weather courtesy of forecast.io.

METAR (pilot weather report)

Closest report is Cortland County Chase Field, 13.7 nm (25.4 km) SSE. Retrieved 2019/07/24 05:35 UTC (18 minutes ago):

KN03 240535Z AUTO 00000KT 10SM CLR 12/12 A2998 RMK AO2

TAF (pilot weather forecast)

Forecast is more than 12 hours old.

Closest forecast is Syracuse Hancock International Airport, 20.2 nm (37.4 km) NNE. Retrieved 2019/07/23 00:42 UTC (1 day ago):

TAF KSYR 232340Z 2400/2424 31008KT P6SM FEW060 SCT120 FM240200 VRB03KT P6SM FEW250 FM241600 32007KT P6SM FEW050 SCT060